KMEM

Memphis International Airport

ICAO Code KMEM
IATA Code MEM
Name Memphis International Airport
Location Memphis, Tennessee, US
Elevation 341 Feet / 103.9 Meters
Latitude 35.04240036
Longitude -89.97669983
METAR KMEM 210854Z 21010KT 10SM CLR 26/22 A2979 RMK AO2 SLP084 T02610222 58003
Extra information Display Charts and CFS
Display NOTAMS
Runway Length Width Surface Elevation
09 8946 ft 150 ft ASP 253 ft
18C 11120 ft 150 ft CON 271 ft
18L 9000 ft 150 ft CON 278 ft
18R 9320 ft 150 ft CON 288 ft
27 8946 ft 150 ft ASP 292 ft
36C 11120 ft 150 ft CON 341 ft
36R 9000 ft 150 ft CON 335 ft
36L 9320 ft 150 ft CON 321 ft